createdAt,value
2023-05-14T00:00:25.658Z,165.92
2023-05-14T00:01:25.562Z,167.66
2023-05-14T00:02:25.697Z,168.55
2023-05-14T00:03:25.843Z,167.89
2023-05-14T00:04:25.870Z,165.00
2023-05-14T00:05:25.918Z,165.53
2023-05-14T00:06:26.017Z,165.82
2023-05-14T00:07:26.107Z,165.87
2023-05-14T00:08:26.215Z,166.41
2023-05-14T00:09:26.283Z,166.61
2023-05-14T00:10:26.376Z,166.30
2023-05-14T00:11:26.456Z,166.08
2023-05-14T00:12:26.525Z,165.96
2023-05-14T00:13:26.625Z,164.92
2023-05-14T00:14:26.752Z,165.86
2023-05-14T00:15:26.783Z,168.88
2023-05-14T00:16:26.882Z,167.65
2023-05-14T00:17:26.973Z,167.64
2023-05-14T00:18:27.053Z,166.61
2023-05-14T00:19:27.090Z,168.97
2023-05-14T00:20:27.207Z,167.79
2023-05-14T00:21:27.259Z,166.31
2023-05-14T00:22:27.361Z,168.39
2023-05-14T00:23:27.425Z,166.22
2023-05-14T00:24:27.512Z,168.06
2023-05-14T00:25:27.599Z,165.55
2023-05-14T00:26:27.686Z,165.32
2023-05-14T00:27:27.784Z,167.86
2023-05-14T00:28:27.865Z,164.04
2023-05-14T00:29:27.947Z,165.82
2023-05-14T00:30:28.029Z,167.31
2023-05-14T00:31:28.152Z,165.87
2023-05-14T00:32:28.223Z,166.03
2023-05-14T00:33:28.274Z,165.93
2023-05-14T00:34:28.368Z,167.40
2023-05-14T00:35:28.464Z,166.84
2023-05-14T00:36:28.515Z,166.54
2023-05-14T00:37:28.607Z,166.40
2023-05-14T00:38:28.683Z,165.48
2023-05-14T00:39:28.762Z,167.26
2023-05-14T00:40:28.861Z,166.49
2023-05-14T00:41:28.935Z,165.62
2023-05-14T00:42:29.033Z,167.85
2023-05-14T00:43:29.106Z,166.49
2023-05-14T00:44:29.192Z,167.03
2023-05-14T00:45:29.279Z,165.22
2023-05-14T00:47:29.502Z,165.22
2023-05-14T00:48:29.525Z,167.66
2023-05-14T00:49:29.617Z,164.39
2023-05-14T00:50:29.719Z,167.82
2023-05-14T00:51:29.767Z,165.69
2023-05-14T00:52:29.858Z,165.62
2023-05-14T00:53:29.942Z,166.39
2023-05-14T00:54:30.022Z,165.14
2023-05-14T00:55:30.096Z,166.12
2023-05-14T00:56:30.165Z,163.95
2023-05-14T00:57:30.262Z,167.79
2023-05-14T00:58:30.348Z,164.83
2023-05-14T00:59:30.422Z,165.69
2023-05-14T01:00:30.521Z,165.32
2023-05-14T01:01:30.662Z,163.79
2023-05-14T01:02:30.792Z,166.35
2023-05-14T01:03:30.854Z,167.73
2023-05-14T01:04:30.843Z,163.96
2023-05-14T01:05:30.923Z,166.86
2023-05-14T01:06:31.006Z,166.39
2023-05-14T01:07:31.090Z,165.52
2023-05-14T01:08:31.173Z,166.02
2023-05-14T01:09:31.246Z,164.43
2023-05-14T01:10:31.343Z,166.48
2023-05-14T01:11:31.426Z,168.02
2023-05-14T01:12:31.498Z,163.11
2023-05-14T01:13:31.581Z,164.63
2023-05-14T01:14:31.652Z,164.54
2023-05-14T01:15:31.734Z,167.18
2023-05-14T01:16:31.853Z,164.80
2023-05-14T01:17:31.912Z,164.22
2023-05-14T01:18:32.010Z,166.47
2023-05-14T01:19:32.023Z,165.63
2023-05-14T01:20:32.104Z,163.34
2023-05-14T01:21:32.178Z,162.04
2023-05-14T01:22:32.258Z,166.25
2023-05-14T01:23:32.361Z,166.38
2023-05-14T01:24:32.436Z,165.69
2023-05-14T01:25:32.506Z,165.83
2023-05-14T01:26:32.576Z,165.29
2023-05-14T01:27:32.640Z,165.51
2023-05-14T01:28:32.725Z,163.06
2023-05-14T01:29:32.732Z,164.09
2023-05-14T01:30:32.798Z,165.19
2023-05-14T01:31:32.896Z,164.30
2023-05-14T01:32:32.929Z,164.68
2023-05-14T01:33:32.988Z,163.91
2023-05-14T01:34:33.058Z,164.75
2023-05-14T01:35:33.143Z,165.17
2023-05-14T01:36:33.373Z,163.96
2023-05-14T01:37:33.313Z,164.87
2023-05-14T01:38:33.392Z,164.07
2023-05-14T01:39:33.481Z,165.71
2023-05-14T01:40:33.549Z,165.08
2023-05-14T01:41:33.633Z,163.59
2023-05-14T01:42:33.716Z,166.31
2023-05-14T01:43:33.831Z,165.06
2023-05-14T01:44:33.869Z,165.11
2023-05-14T01:45:33.931Z,164.22
2023-05-14T01:46:34.166Z,164.68
2023-05-14T01:47:34.129Z,164.93
2023-05-14T01:48:34.215Z,166.03
2023-05-14T01:49:34.305Z,165.84
2023-05-14T01:50:34.396Z,162.92
2023-05-14T01:51:34.492Z,164.90
2023-05-14T01:52:34.579Z,163.16
2023-05-14T01:53:34.681Z,165.80
2023-05-14T01:54:34.775Z,163.76
2023-05-14T01:55:34.834Z,163.08
2023-05-14T01:56:34.914Z,166.46
2023-05-14T01:57:34.976Z,163.28
2023-05-14T01:58:35.060Z,164.52
2023-05-14T01:59:35.144Z,164.03
2023-05-14T02:00:35.189Z,164.64
2023-05-14T02:01:35.317Z,162.95
2023-05-14T02:02:35.379Z,161.69
2023-05-14T02:03:35.467Z,163.57
2023-05-14T02:04:35.522Z,163.37
2023-05-14T02:05:35.566Z,164.20
2023-05-14T02:06:35.655Z,163.62
2023-05-14T02:07:35.747Z,162.66
2023-05-14T02:08:35.802Z,162.78
2023-05-14T02:09:35.898Z,163.58
2023-05-14T02:10:36.441Z,163.54
2023-05-14T02:11:36.042Z,163.24
2023-05-14T02:12:36.122Z,165.88
2023-05-14T02:13:36.196Z,163.90
2023-05-14T02:14:36.261Z,164.23
2023-05-14T02:15:36.398Z,164.75
2023-05-14T02:16:36.443Z,164.56
2023-05-14T02:17:36.530Z,165.40
2023-05-14T02:18:36.649Z,165.36
2023-05-14T02:19:36.622Z,163.30
2023-05-14T02:20:36.698Z,164.85
2023-05-14T02:21:36.763Z,162.43
2023-05-14T02:22:36.815Z,165.90
2023-05-14T02:23:41.490Z,165.20
2023-05-14T02:24:37.921Z,165.40
2023-05-14T02:25:36.938Z,165.21
2023-05-14T02:26:36.942Z,165.31
2023-05-14T02:27:36.945Z,165.43
2023-05-14T02:28:36.978Z,165.66
2023-05-14T02:29:36.987Z,164.78
2023-05-14T02:30:37.030Z,164.47
2023-05-14T02:31:37.045Z,165.48
2023-05-14T02:32:37.156Z,164.83
2023-05-14T02:33:37.226Z,164.85
2023-05-14T02:34:37.272Z,166.46
2023-05-14T02:35:37.349Z,163.77
2023-05-14T02:36:37.436Z,164.84
2023-05-14T02:37:37.520Z,163.70
2023-05-14T02:38:37.611Z,164.26
2023-05-14T02:39:37.692Z,164.62
2023-05-14T02:40:37.763Z,164.87
2023-05-14T02:41:37.839Z,163.96
2023-05-14T02:42:37.908Z,163.01
2023-05-14T02:43:38.002Z,165.41
2023-05-14T02:44:38.060Z,161.44
2023-05-14T02:45:38.127Z,163.01
2023-05-14T02:46:38.183Z,163.77
2023-05-14T02:47:38.469Z,163.51
2023-05-14T02:48:38.245Z,165.49
2023-05-14T02:49:38.292Z,163.07
2023-05-14T02:50:38.388Z,161.82
2023-05-14T02:51:38.450Z,162.44
2023-05-14T02:52:38.532Z,163.06
2023-05-14T02:53:38.661Z,162.71
2023-05-14T02:54:38.721Z,164.03
2023-05-14T02:55:38.804Z,162.84
2023-05-14T02:56:38.873Z,161.81
2023-05-14T02:57:38.970Z,164.21
2023-05-14T02:58:39.044Z,166.09
2023-05-14T02:59:39.121Z,164.46
2023-05-14T03:00:39.252Z,161.37
2023-05-14T03:01:39.278Z,163.90
2023-05-14T03:02:39.404Z,161.06
2023-05-14T03:03:39.400Z,161.18
2023-05-14T03:04:39.471Z,163.39
2023-05-14T03:05:39.541Z,162.48
2023-05-14T03:06:39.642Z,164.78
2023-05-14T03:07:39.701Z,161.90
2023-05-14T03:08:39.750Z,163.62
2023-05-14T03:09:39.827Z,162.20
2023-05-14T03:10:39.909Z,160.40
2023-05-14T03:11:40.008Z,162.31
2023-05-14T03:12:40.022Z,163.53
2023-05-14T03:13:40.088Z,160.63
2023-05-14T03:14:40.129Z,159.92
2023-05-14T03:15:40.226Z,162.04
2023-05-14T03:16:40.389Z,162.88
2023-05-14T03:17:40.381Z,160.95
2023-05-14T03:18:40.454Z,163.74
2023-05-14T03:19:40.508Z,162.96
2023-05-14T03:20:40.604Z,164.00
2023-05-14T03:21:40.695Z,164.49
2023-05-14T03:22:40.770Z,165.24
2023-05-14T03:23:40.865Z,160.95
2023-05-14T03:24:40.940Z,165.02
2023-05-14T03:25:41.067Z,162.56
2023-05-14T03:26:41.126Z,161.89
2023-05-14T03:27:41.185Z,161.66
2023-05-14T03:28:41.238Z,164.34
2023-05-14T03:29:41.299Z,162.93
2023-05-14T03:30:41.402Z,161.65
2023-05-14T03:31:41.475Z,163.43
2023-05-14T03:32:41.593Z,160.57
2023-05-14T03:33:41.644Z,162.86
2023-05-14T03:34:41.708Z,163.16
2023-05-14T03:35:41.787Z,164.74
2023-05-14T03:36:41.871Z,162.52
2023-05-14T03:37:41.955Z,163.07
2023-05-14T03:38:42.020Z,162.73
2023-05-14T03:39:42.112Z,161.14
2023-05-14T03:40:42.179Z,162.10
2023-05-14T03:41:42.241Z,162.95
2023-05-14T03:42:42.313Z,161.25
2023-05-14T03:43:42.384Z,162.15
2023-05-14T03:44:42.427Z,160.68
2023-05-14T03:45:42.511Z,162.56
2023-05-14T03:46:42.607Z,164.20
2023-05-14T03:47:42.677Z,163.11
2023-05-14T03:48:42.808Z,161.84
2023-05-14T03:49:42.829Z,163.17
2023-05-14T03:50:42.865Z,164.13
2023-05-14T03:51:42.925Z,162.56
2023-05-14T03:52:42.993Z,161.75
2023-05-14T03:53:43.057Z,161.01
2023-05-14T03:54:43.148Z,160.79
2023-05-14T03:55:43.241Z,162.33
2023-05-14T03:56:43.326Z,164.08
2023-05-14T03:57:43.392Z,160.66
2023-05-14T03:58:43.441Z,162.12
2023-05-14T03:59:43.487Z,159.87
2023-05-14T04:00:43.554Z,162.44
2023-05-14T04:01:43.633Z,161.56
2023-05-14T04:02:43.903Z,160.88
2023-05-14T04:03:43.928Z,162.47
2023-05-14T04:04:43.893Z,162.26
2023-05-14T04:05:43.939Z,162.07
2023-05-14T04:06:44.015Z,161.09
2023-05-14T04:07:44.076Z,162.28
2023-05-14T04:08:44.156Z,163.09
2023-05-14T04:09:44.222Z,159.83
2023-05-14T04:10:44.307Z,158.29
2023-05-14T04:11:44.364Z,159.10
2023-05-14T04:12:44.400Z,161.67
2023-05-14T04:13:44.465Z,159.97
2023-05-14T04:14:44.517Z,162.73
2023-05-14T04:15:44.553Z,158.57
2023-05-14T04:16:44.661Z,160.84
2023-05-14T04:17:44.723Z,161.07
2023-05-14T04:18:44.784Z,161.44
2023-05-14T04:19:44.849Z,160.08
2023-05-14T04:20:44.945Z,160.58
2023-05-14T04:21:45.030Z,160.19
2023-05-14T04:22:45.102Z,159.61
2023-05-14T04:23:45.187Z,161.09
2023-05-14T04:24:45.261Z,159.42
2023-05-14T04:25:45.346Z,160.15
2023-05-14T04:26:45.433Z,161.60
2023-05-14T04:27:45.489Z,160.08
2023-05-14T04:28:45.564Z,160.63
2023-05-14T04:29:45.634Z,158.05
2023-05-14T04:30:45.718Z,162.04
2023-05-14T04:31:45.851Z,158.38
2023-05-14T04:32:45.922Z,159.09
2023-05-14T04:33:45.967Z,160.48
2023-05-14T04:34:46.050Z,158.98
2023-05-14T04:35:46.137Z,160.77
2023-05-14T04:36:46.213Z,159.54
2023-05-14T04:37:46.262Z,159.21
2023-05-14T04:38:46.335Z,161.04
2023-05-14T04:39:46.414Z,158.21
2023-05-14T04:40:46.474Z,157.49
2023-05-14T04:41:46.530Z,157.37
2023-05-14T04:42:46.562Z,160.37
2023-05-14T04:43:46.615Z,156.89
2023-05-14T04:44:46.667Z,160.92
2023-05-14T04:45:46.784Z,159.05
2023-05-14T04:46:46.885Z,157.78
2023-05-14T04:47:46.982Z,160.26
2023-05-14T04:48:46.971Z,161.46
2023-05-14T04:49:47.028Z,159.50
2023-05-14T04:50:47.064Z,157.96
2023-05-14T04:51:47.120Z,156.54
2023-05-14T04:52:47.168Z,157.21
2023-05-14T04:53:47.250Z,157.17
2023-05-14T04:54:47.330Z,157.96
2023-05-14T04:55:47.416Z,156.26
2023-05-14T04:56:47.474Z,158.35
2023-05-14T04:57:47.534Z,157.09
2023-05-14T04:58:47.634Z,157.88
2023-05-14T04:59:47.730Z,159.92
2023-05-14T05:00:47.916Z,157.60
2023-05-14T05:01:47.974Z,158.36
2023-05-14T05:02:48.054Z,161.62
2023-05-14T05:03:48.173Z,160.03
2023-05-14T05:04:48.180Z,156.80
2023-05-14T05:05:48.243Z,158.45
2023-05-14T05:06:48.305Z,156.32
2023-05-14T05:07:48.396Z,155.76
2023-05-14T05:08:48.456Z,158.60
2023-05-14T05:09:48.552Z,156.88
2023-05-14T05:10:48.633Z,159.26
2023-05-14T05:11:48.699Z,160.12
2023-05-14T05:12:48.739Z,156.03
2023-05-14T05:13:48.793Z,156.27
2023-05-14T05:14:48.886Z,156.87
2023-05-14T05:15:48.982Z,158.21
2023-05-14T05:16:49.034Z,159.02
2023-05-14T05:17:49.142Z,157.03
2023-05-14T05:18:49.224Z,157.33
2023-05-14T05:19:49.256Z,156.89
2023-05-14T05:20:49.331Z,157.50
2023-05-14T05:21:49.488Z,158.72
2023-05-14T05:22:49.478Z,158.67
2023-05-14T05:23:49.557Z,159.41
2023-05-14T05:24:50.164Z,158.01
2023-05-14T05:25:49.720Z,156.97
2023-05-14T05:26:49.812Z,157.29
2023-05-14T05:27:49.898Z,155.79
2023-05-14T05:28:49.972Z,157.02
2023-05-14T05:29:50.071Z,157.41
2023-05-14T05:30:50.157Z,156.06
2023-05-14T05:31:50.250Z,155.63
2023-05-14T05:32:50.384Z,155.93
2023-05-14T05:33:50.334Z,158.82
2023-05-14T05:34:50.394Z,157.54
2023-05-14T05:35:50.470Z,155.50
2023-05-14T05:36:50.538Z,155.87
2023-05-14T05:37:50.596Z,154.53
2023-05-14T05:38:50.665Z,155.59
2023-05-14T05:39:50.745Z,156.73
2023-05-14T05:40:50.920Z,155.13
2023-05-14T05:41:50.888Z,156.43
2023-05-14T05:42:51.008Z,157.50
2023-05-14T05:43:50.960Z,155.66
2023-05-14T05:44:51.008Z,155.56
2023-05-14T05:45:51.066Z,155.48
2023-05-14T05:46:51.278Z,155.16
2023-05-14T05:47:51.241Z,155.27
2023-05-14T05:48:51.263Z,156.39
2023-05-14T05:49:51.299Z,153.63
2023-05-14T05:50:51.428Z,157.89
2023-05-14T05:51:51.572Z,153.98
2023-05-14T05:52:51.480Z,155.57
2023-05-14T05:53:51.574Z,157.77
2023-05-14T05:54:51.613Z,152.62
2023-05-14T05:55:51.758Z,154.05
2023-05-14T05:56:51.742Z,154.78
2023-05-14T05:57:51.813Z,158.00
2023-05-14T05:58:51.887Z,155.19
2023-05-14T05:59:51.934Z,153.78
2023-05-14T06:00:52.027Z,155.85
2023-05-14T06:01:52.131Z,156.26
2023-05-14T06:02:52.168Z,153.78
2023-05-14T06:03:52.180Z,155.46
2023-05-14T06:04:52.259Z,154.23
2023-05-14T06:05:52.307Z,153.27
2023-05-14T06:06:52.301Z,156.55
2023-05-14T06:07:52.330Z,154.80
2023-05-14T06:08:52.386Z,156.51
2023-05-14T06:09:52.492Z,154.66
2023-05-14T06:10:52.587Z,154.34
2023-05-14T06:11:52.630Z,155.60
2023-05-14T06:12:52.705Z,154.36
2023-05-14T06:13:52.774Z,155.26
2023-05-14T06:14:52.841Z,154.46
2023-05-14T06:15:52.922Z,156.49
2023-05-14T06:16:53.140Z,154.16
2023-05-14T06:17:53.097Z,153.48
2023-05-14T06:18:53.206Z,155.66
2023-05-14T06:19:53.242Z,153.93
2023-05-14T06:20:53.312Z,155.50
2023-05-14T06:21:53.381Z,158.61
2023-05-14T06:22:53.457Z,156.57
2023-05-14T06:23:53.529Z,154.74
2023-05-14T06:24:53.636Z,155.32
2023-05-14T06:25:53.724Z,153.85
2023-05-14T06:26:53.789Z,154.74
2023-05-14T06:27:53.862Z,156.14
2023-05-14T06:28:53.948Z,153.09
2023-05-14T06:29:54.042Z,153.68
2023-05-14T06:30:54.116Z,153.70
2023-05-14T06:31:54.226Z,153.01
2023-05-14T06:32:54.376Z,156.60
2023-05-14T06:33:54.354Z,157.68
2023-05-14T06:34:54.454Z,156.03
2023-05-14T06:35:54.513Z,156.72
2023-05-14T06:36:54.608Z,155.02
2023-05-14T06:37:54.669Z,154.37
2023-05-14T06:38:54.734Z,154.41
2023-05-14T06:39:57.610Z,153.87
2023-05-14T06:40:54.839Z,155.71
2023-05-14T06:41:54.864Z,153.76
2023-05-14T06:42:54.878Z,156.17
2023-05-14T06:43:54.882Z,155.15
2023-05-14T06:44:55.033Z,155.54
2023-05-14T06:45:54.918Z,155.16
2023-05-14T06:46:54.943Z,154.75
2023-05-14T06:47:55.021Z,156.60
2023-05-14T06:48:56.226Z,153.79
2023-05-14T06:49:54.992Z,153.98
2023-05-14T06:50:55.004Z,154.36
2023-05-14T06:51:55.030Z,155.19
2023-05-14T06:52:55.038Z,153.80
2023-05-14T06:53:55.054Z,158.15
2023-05-14T06:54:55.073Z,156.11
2023-05-14T06:55:55.087Z,157.85
2023-05-14T06:56:55.108Z,154.65
2023-05-14T06:57:55.127Z,153.56
2023-05-14T06:58:55.125Z,155.01
2023-05-14T06:59:55.139Z,155.82
2023-05-14T07:00:55.154Z,154.27
2023-05-14T07:01:55.243Z,151.87
2023-05-14T07:02:55.199Z,153.42
2023-05-14T07:03:55.238Z,152.79
2023-05-14T07:04:55.228Z,153.75
2023-05-14T07:05:55.241Z,154.51
2023-05-14T07:06:55.268Z,153.26
2023-05-14T07:07:55.274Z,151.93
2023-05-14T07:08:55.292Z,153.57
2023-05-14T07:09:55.307Z,153.82
2023-05-14T07:10:55.344Z,154.57
2023-05-14T07:11:55.356Z,152.68
2023-05-14T07:12:55.373Z,153.76
2023-05-14T07:13:55.405Z,151.94
2023-05-14T07:14:55.406Z,152.05
2023-05-14T07:15:55.431Z,151.48
2023-05-14T07:16:55.517Z,151.39
2023-05-14T07:17:55.591Z,150.62
2023-05-14T07:18:55.567Z,150.72
2023-05-14T07:19:55.501Z,151.58
2023-05-14T07:20:55.519Z,149.76
2023-05-14T07:21:55.546Z,150.26
2023-05-14T07:22:55.554Z,152.33
2023-05-14T07:23:55.564Z,151.12
2023-05-14T07:24:55.604Z,150.61
2023-05-14T07:25:55.610Z,149.56
2023-05-14T07:26:55.707Z,149.37
2023-05-14T07:27:55.779Z,148.47
2023-05-14T07:28:55.873Z,149.64
2023-05-14T07:29:55.957Z,147.80
2023-05-14T07:30:56.059Z,149.45
2023-05-14T07:31:56.125Z,146.95
2023-05-14T07:32:56.415Z,145.25
2023-05-14T07:33:56.291Z,145.89
2023-05-14T07:34:56.366Z,145.10
2023-05-14T07:35:56.450Z,145.63
2023-05-14T07:36:56.526Z,145.81
2023-05-14T07:37:56.580Z,144.63
2023-05-14T07:38:56.654Z,146.03
2023-05-14T07:39:56.726Z,144.36
2023-05-14T07:40:56.786Z,145.22
2023-05-14T07:41:56.862Z,142.81
2023-05-14T07:42:56.923Z,141.89
2023-05-14T07:43:56.978Z,142.33
2023-05-14T07:44:57.032Z,143.50
2023-05-14T07:45:57.089Z,143.03
2023-05-14T07:46:57.181Z,141.76
2023-05-14T07:47:57.355Z,143.74
2023-05-14T07:48:57.282Z,141.60
2023-05-14T07:49:57.347Z,141.08
2023-05-14T07:50:57.405Z,142.12
2023-05-14T07:51:57.466Z,142.03
2023-05-14T07:52:57.514Z,141.71
2023-05-14T07:53:57.558Z,138.58
2023-05-14T07:54:57.618Z,141.71
2023-05-14T07:55:57.665Z,139.94
2023-05-14T07:56:57.718Z,138.00
2023-05-14T07:57:57.775Z,140.22
2023-05-14T07:58:57.865Z,138.00
2023-05-14T07:59:57.878Z,138.29
2023-05-14T08:00:57.926Z,137.96
2023-05-14T08:01:57.981Z,136.31
2023-05-14T08:02:58.206Z,135.54
2023-05-14T08:03:58.159Z,139.58
2023-05-14T08:04:58.121Z,135.98
2023-05-14T08:05:58.168Z,134.94
2023-05-14T08:06:58.218Z,135.64
2023-05-14T08:07:58.257Z,132.60
2023-05-14T08:08:58.302Z,133.04
2023-05-14T08:09:58.340Z,133.55
2023-05-14T08:10:58.432Z,133.29
2023-05-14T08:11:58.417Z,131.93
2023-05-14T08:12:58.451Z,133.94
2023-05-14T08:13:58.508Z,132.27
2023-05-14T08:14:58.512Z,131.49
2023-05-14T08:15:58.540Z,130.90
2023-05-14T08:16:58.632Z,129.75
2023-05-14T08:17:58.714Z,128.77
2023-05-14T08:18:58.714Z,127.46
2023-05-14T08:19:58.635Z,127.31
2023-05-14T08:20:58.666Z,128.09
2023-05-14T08:21:58.729Z,125.12
2023-05-14T08:22:58.746Z,127.16
2023-05-14T08:23:58.764Z,126.22
2023-05-14T08:24:58.771Z,126.40
2023-05-14T08:25:58.804Z,126.23
2023-05-14T08:26:58.819Z,122.19
2023-05-14T08:27:58.870Z,122.85
2023-05-14T08:28:58.934Z,123.07
2023-05-14T08:29:58.973Z,120.63
2023-05-14T08:30:59.085Z,121.22
2023-05-14T08:32:00.330Z,122.39
2023-05-14T08:32:59.134Z,122.53
2023-05-14T08:33:59.137Z,123.09
2023-05-14T08:34:59.135Z,124.49
2023-05-14T08:35:59.132Z,123.18
2023-05-14T08:36:59.144Z,121.81
2023-05-14T08:37:59.159Z,119.61
2023-05-14T08:38:59.172Z,120.60
2023-05-14T08:39:59.176Z,121.82
2023-05-14T08:40:59.191Z,120.02
2023-05-14T08:41:59.196Z,119.97
2023-05-14T08:42:59.203Z,118.31
2023-05-14T08:43:59.201Z,118.82
2023-05-14T08:44:59.205Z,120.63
2023-05-14T08:45:59.204Z,117.66
2023-05-14T08:46:59.208Z,117.99
2023-05-14T08:47:59.362Z,119.23
2023-05-14T08:48:59.355Z,119.20
2023-05-14T08:49:59.402Z,121.69
2023-05-14T08:50:59.475Z,118.80
2023-05-14T08:51:59.550Z,121.35
2023-05-14T08:52:59.584Z,118.14
2023-05-14T08:53:59.638Z,119.29
2023-05-14T08:54:59.670Z,117.54
2023-05-14T08:55:59.716Z,117.58
2023-05-14T08:56:59.767Z,118.80
2023-05-14T08:57:59.832Z,118.01
2023-05-14T08:58:59.881Z,119.07
2023-05-14T08:59:59.950Z,117.27
2023-05-14T09:01:00.002Z,117.94
2023-05-14T09:02:00.059Z,116.95
2023-05-14T09:03:00.138Z,119.70
2023-05-14T09:04:01.134Z,119.90
2023-05-14T09:05:00.194Z,119.97
2023-05-14T09:06:00.387Z,120.18
2023-05-14T09:07:00.121Z,120.18
2023-05-14T09:08:00.110Z,120.51
2023-05-14T09:09:00.139Z,120.27
2023-05-14T09:10:00.115Z,120.74
2023-05-14T09:11:00.157Z,120.91
2023-05-14T09:12:00.133Z,121.20
2023-05-14T09:13:00.123Z,120.32
2023-05-14T09:14:00.127Z,118.73
2023-05-14T09:15:00.145Z,122.48
2023-05-14T09:16:00.183Z,121.43
2023-05-14T09:17:00.191Z,120.39
2023-05-14T09:18:00.344Z,121.28
2023-05-14T09:19:00.371Z,120.70
2023-05-14T09:20:00.343Z,120.61
2023-05-14T09:21:00.365Z,119.82
2023-05-14T09:22:00.405Z,122.13
2023-05-14T09:23:00.461Z,121.86
2023-05-14T09:24:00.472Z,121.14
2023-05-14T09:25:00.520Z,122.44
2023-05-14T09:26:00.523Z,119.36
2023-05-14T09:27:00.563Z,120.41
2023-05-14T09:28:00.574Z,121.51
2023-05-14T09:29:00.616Z,121.08
2023-05-14T09:30:00.626Z,120.88
2023-05-14T09:31:00.654Z,121.44
2023-05-14T09:32:00.730Z,122.99
2023-05-14T09:33:00.819Z,123.04
2023-05-14T09:34:00.798Z,123.25
2023-05-14T09:35:00.879Z,122.84
2023-05-14T09:36:00.934Z,121.63
2023-05-14T09:37:00.958Z,122.36
2023-05-14T09:38:00.964Z,122.03
2023-05-14T09:39:00.996Z,122.27
2023-05-14T09:40:01.027Z,124.44
2023-05-14T09:41:01.073Z,123.01
2023-05-14T09:42:01.133Z,122.34
2023-05-14T09:43:01.155Z,123.64
2023-05-14T09:44:01.195Z,120.23
2023-05-14T09:45:01.261Z,121.07
2023-05-14T09:46:01.295Z,119.97
2023-05-14T09:47:01.374Z,122.19
2023-05-14T09:48:01.573Z,122.76
2023-05-14T09:49:01.452Z,120.46
2023-05-14T09:50:01.504Z,120.51
2023-05-14T09:51:04.020Z,121.94
2023-05-14T09:52:01.569Z,125.47
2023-05-14T09:53:01.579Z,123.84
2023-05-14T09:54:01.587Z,120.42
2023-05-14T09:55:01.597Z,122.30
2023-05-14T09:56:01.614Z,121.77
2023-05-14T09:57:01.606Z,120.66
2023-05-14T09:58:01.599Z,122.21
2023-05-14T09:59:01.608Z,121.10
2023-05-14T10:00:01.630Z,123.07
2023-05-14T10:01:01.665Z,121.52
2023-05-14T10:02:01.639Z,121.98
2023-05-14T10:03:01.671Z,121.89
2023-05-14T10:04:01.721Z,123.81
2023-05-14T10:05:01.660Z,124.30
2023-05-14T10:06:01.670Z,123.02
2023-05-14T10:07:01.678Z,123.10
2023-05-14T10:08:01.683Z,124.79
2023-05-14T10:09:01.697Z,121.48
2023-05-14T10:10:01.728Z,122.52
2023-05-14T10:11:01.706Z,122.54
2023-05-14T10:12:01.738Z,123.21
2023-05-14T10:13:01.733Z,120.99
2023-05-14T10:14:01.744Z,124.08
2023-05-14T10:15:01.769Z,124.95
2023-05-14T10:16:01.772Z,125.42
2023-05-14T10:17:01.852Z,122.28
2023-05-14T10:18:01.846Z,123.28
2023-05-14T10:19:01.817Z,122.14
2023-05-14T10:20:01.792Z,123.17
2023-05-14T10:21:01.796Z,125.23
2023-05-14T10:22:01.824Z,126.22
2023-05-14T10:23:01.821Z,125.79
2023-05-14T10:24:01.861Z,124.99
2023-05-14T10:25:01.828Z,122.51
2023-05-14T10:26:01.830Z,123.81
2023-05-14T10:27:01.840Z,125.57
2023-05-14T10:28:01.863Z,124.32
2023-05-14T10:29:01.863Z,125.07
2023-05-14T10:30:01.866Z,125.23
2023-05-14T10:31:01.934Z,125.20
2023-05-14T10:32:01.886Z,127.06
2023-05-14T10:33:01.963Z,125.84
2023-05-14T10:34:01.904Z,126.25
2023-05-14T10:35:01.903Z,125.77
2023-05-14T10:36:01.906Z,123.99
2023-05-14T10:37:01.925Z,127.03
2023-05-14T10:38:01.934Z,124.94
2023-05-14T10:39:01.930Z,125.15
2023-05-14T10:40:01.937Z,128.42
2023-05-14T10:41:01.935Z,125.81
2023-05-14T10:42:01.945Z,127.76
2023-05-14T10:43:01.948Z,126.73
2023-05-14T10:44:01.951Z,126.65
2023-05-14T10:45:01.990Z,126.64
2023-05-14T10:46:01.960Z,127.40
2023-05-14T10:47:02.103Z,126.61
2023-05-14T10:48:02.013Z,126.75
2023-05-14T10:49:01.966Z,126.21
2023-05-14T10:50:01.981Z,127.58
2023-05-14T10:51:02.051Z,126.21
2023-05-14T10:52:01.991Z,126.26
2023-05-14T10:53:02.003Z,124.52
2023-05-14T10:54:02.008Z,123.34
2023-05-14T10:55:03.386Z,123.51
2023-05-14T10:56:02.003Z,125.66
2023-05-14T10:57:02.003Z,126.51
2023-05-14T10:58:02.013Z,124.82
2023-05-14T10:59:02.003Z,123.79
2023-05-14T11:00:02.010Z,126.54
2023-05-14T11:01:02.009Z,125.40
2023-05-14T11:02:02.058Z,126.81
2023-05-14T11:03:02.068Z,124.13
2023-05-14T11:04:02.045Z,124.79
2023-05-14T11:05:02.006Z,125.16
2023-05-14T11:06:01.985Z,125.24
2023-05-14T11:07:01.992Z,124.13
2023-05-14T11:08:01.993Z,125.76
2023-05-14T11:09:02.001Z,125.90
2023-05-14T11:10:01.993Z,127.75
2023-05-14T11:11:02.076Z,126.03
2023-05-14T11:12:02.015Z,125.61
2023-05-14T11:13:02.010Z,127.79
2023-05-14T11:14:02.012Z,123.97
2023-05-14T11:15:02.023Z,125.05
2023-05-14T11:16:08.728Z,127.36
2023-05-14T11:17:03.079Z,127.48
2023-05-14T11:18:02.045Z,127.67
2023-05-14T11:19:02.086Z,127.83
2023-05-14T11:20:02.036Z,126.75
2023-05-14T11:21:02.080Z,126.58
2023-05-14T11:22:02.050Z,125.53
2023-05-14T11:23:02.058Z,125.37
2023-05-14T11:24:02.061Z,123.87
2023-05-14T11:25:02.070Z,124.11
2023-05-14T11:26:02.117Z,125.01
2023-05-14T11:27:02.077Z,127.17
2023-05-14T11:28:02.094Z,124.24
2023-05-14T11:29:02.065Z,126.36
2023-05-14T11:30:02.089Z,123.28
2023-05-14T11:31:02.086Z,125.10
2023-05-14T11:32:02.187Z,125.37
2023-05-14T11:33:02.355Z,124.70
2023-05-14T11:34:02.085Z,124.10
2023-05-14T11:35:02.067Z,126.26
2023-05-14T11:36:02.067Z,125.07
2023-05-14T11:37:02.074Z,123.65
2023-05-14T11:38:02.128Z,123.96
2023-05-14T11:39:02.073Z,126.13
2023-05-14T11:40:02.101Z,125.19
2023-05-14T11:41:02.087Z,123.51
2023-05-14T11:42:02.098Z,124.89
2023-05-14T11:43:02.117Z,126.36
2023-05-14T11:44:02.114Z,125.72
2023-05-14T11:45:02.112Z,123.12
2023-05-14T11:46:02.183Z,124.52
2023-05-14T11:47:02.159Z,122.51
2023-05-14T11:48:02.186Z,123.55
2023-05-14T11:49:02.154Z,124.08
2023-05-14T11:50:02.161Z,125.11
2023-05-14T11:51:02.180Z,120.65
2023-05-14T11:52:02.196Z,124.88
2023-05-14T11:53:02.203Z,125.58
2023-05-14T11:54:02.219Z,123.32
2023-05-14T11:55:02.241Z,121.94
2023-05-14T11:56:02.241Z,124.48
2023-05-14T11:57:02.258Z,123.88
2023-05-14T11:58:02.276Z,124.32
2023-05-14T11:59:02.307Z,124.09
2023-05-14T12:00:02.298Z,122.86
2023-05-14T12:01:02.322Z,125.15
2023-05-14T12:02:02.413Z,121.98
2023-05-14T12:03:02.401Z,123.26
2023-05-14T12:04:02.515Z,119.99
2023-05-14T12:05:02.376Z,122.69
2023-05-14T12:06:02.374Z,121.42
2023-05-14T12:07:02.399Z,122.40
2023-05-14T12:08:02.410Z,123.31
2023-05-14T12:09:02.430Z,123.68
2023-05-14T12:10:02.429Z,122.02
2023-05-14T12:11:02.434Z,121.34
2023-05-14T12:12:02.475Z,123.47
2023-05-14T12:13:02.474Z,125.69
2023-05-14T12:14:02.493Z,120.52
2023-05-14T12:15:02.505Z,123.29
2023-05-14T12:16:02.648Z,124.72
2023-05-14T12:17:02.543Z,122.77
2023-05-14T12:18:03.058Z,125.71
2023-05-14T12:19:02.645Z,124.09
2023-05-14T12:20:02.634Z,125.28
2023-05-14T12:21:02.647Z,125.86
2023-05-14T12:22:02.682Z,126.02
2023-05-14T12:23:02.685Z,123.62
2023-05-14T12:24:02.707Z,122.60
2023-05-14T12:25:02.725Z,125.77
2023-05-14T12:26:02.723Z,126.75
2023-05-14T12:27:02.782Z,125.12
2023-05-14T12:28:02.826Z,125.74
2023-05-14T12:29:02.779Z,126.20
2023-05-14T12:30:19.212Z,124.96